sensor_id;sensor_type;location;lat;lon;timestamp;temperature;humidity
10030;DHT22;5055;52.054;8.524;2023-03-01T00:01:47;-3.90;97.00
10030;DHT22;5055;52.054;8.524;2023-03-01T00:04:19;-3.90;97.00
10030;DHT22;5055;52.054;8.524;2023-03-01T00:06:47;-3.90;97.00
10030;DHT22;5055;52.054;8.524;2023-03-01T00:09:16;-4.00;97.00
10030;DHT22;5055;52.054;8.524;2023-03-01T00:11:45;-4.00;97.00
10030;DHT22;5055;52.054;8.524;2023-03-01T00:14:15;-4.10;97.00
10030;DHT22;5055;52.054;8.524;2023-03-01T00:16:45;-4.10;97.00
10030;DHT22;5055;52.054;8.524;2023-03-01T00:19:15;-4.10;97.00
10030;DHT22;5055;52.054;8.524;2023-03-01T00:21:44;-4.10;97.00
10030;DHT22;5055;52.054;8.524;2023-03-01T00:24:13;-4.10;97.00
10030;DHT22;5055;52.054;8.524;2023-03-01T00:26:41;-4.10;97.00
10030;DHT22;5055;52.054;8.524;2023-03-01T00:29:10;-4.20;97.00
10030;DHT22;5055;52.054;8.524;2023-03-01T00:31:40;-4.20;97.00
10030;DHT22;5055;52.054;8.524;2023-03-01T00:34:09;-4.20;97.00
10030;DHT22;5055;52.054;8.524;2023-03-01T00:36:38;-4.30;97.00
10030;DHT22;5055;52.054;8.524;2023-03-01T00:39:10;-4.30;97.00
10030;DHT22;5055;52.054;8.524;2023-03-01T00:41:40;-4.40;97.00
10030;DHT22;5055;52.054;8.524;2023-03-01T00:44:09;-4.40;97.00
10030;DHT22;5055;52.054;8.524;2023-03-01T00:46:39;-4.40;97.00
10030;DHT22;5055;52.054;8.524;2023-03-01T00:49:08;-4.40;97.00
10030;DHT22;5055;52.054;8.524;2023-03-01T00:51:36;-4.40;97.00
10030;DHT22;5055;52.054;8.524;2023-03-01T00:54:07;-4.40;97.00
10030;DHT22;5055;52.054;8.524;2023-03-01T00:56:36;-4.50;97.00
10030;DHT22;5055;52.054;8.524;2023-03-01T00:59:04;-4.40;97.00
10030;DHT22;5055;52.054;8.524;2023-03-01T01:01:32;-4.40;97.00
10030;DHT22;5055;52.054;8.524;2023-03-01T01:04:04;-4.50;97.00
10030;DHT22;5055;52.054;8.524;2023-03-01T01:06:35;-4.50;97.00
10030;DHT22;5055;52.054;8.524;2023-03-01T01:09:05;-4.50;97.00
10030;DHT22;5055;52.054;8.524;2023-03-01T01:11:34;-4.50;97.00
10030;DHT22;5055;52.054;8.524;2023-03-01T01:14:03;-4.50;97.00
10030;DHT22;5055;52.054;8.524;2023-03-01T01:16:32;-4.60;97.00
10030;DHT22;5055;52.054;8.524;2023-03-01T01:19:02;-4.60;97.00
10030;DHT22;5055;52.054;8.524;2023-03-01T01:21:30;-4.60;97.00
10030;DHT22;5055;52.054;8.524;2023-03-01T01:24:00;-4.60;97.00
10030;DHT22;5055;52.054;8.524;2023-03-01T01:26:30;-4.60;97.00
10030;DHT22;5055;52.054;8.524;2023-03-01T01:29:00;-4.70;97.00
10030;DHT22;5055;52.054;8.524;2023-03-01T01:31:29;-4.70;97.00
10030;DHT22;5055;52.054;8.524;2023-03-01T01:33:59;-4.70;97.00
10030;DHT22;5055;52.054;8.524;2023-03-01T01:36:31;-4.80;97.00
10030;DHT22;5055;52.054;8.524;2023-03-01T01:39:00;-4.80;97.00
10030;DHT22;5055;52.054;8.524;2023-03-01T01:41:29;-4.80;97.00
10030;DHT22;5055;52.054;8.524;2023-03-01T01:44:16;-4.90;97.00
10030;DHT22;5055;52.054;8.524;2023-03-01T01:46:47;-4.90;97.00
10030;DHT22;5055;52.054;8.524;2023-03-01T01:49:21;-4.90;97.00
10030;DHT22;5055;52.054;8.524;2023-03-01T01:51:59;-4.90;97.00
10030;DHT22;5055;52.054;8.524;2023-03-01T01:54:31;-4.90;97.00
10030;DHT22;5055;52.054;8.524;2023-03-01T01:57:05;-5.00;97.00
10030;DHT22;5055;52.054;8.524;2023-03-01T01:59:36;-5.00;97.00
10030;DHT22;5055;52.054;8.524;2023-03-01T02:02:05;-5.10;97.00
10030;DHT22;5055;52.054;8.524;2023-03-01T02:04:34;-5.10;97.00
10030;DHT22;5055;52.054;8.524;2023-03-01T02:07:06;-5.10;97.00
10030;DHT22;5055;52.054;8.524;2023-03-01T02:09:37;-5.20;97.00
10030;DHT22;5055;52.054;8.524;2023-03-01T02:12:06;-5.20;97.00
10030;DHT22;5055;52.054;8.524;2023-03-01T02:14:34;-5.20;97.00
10030;DHT22;5055;52.054;8.524;2023-03-01T02:17:02;-5.20;97.00
10030;DHT22;5055;52.054;8.524;2023-03-01T02:19:44;-5.30;97.00
10030;DHT22;5055;52.054;8.524;2023-03-01T02:22:22;-5.30;97.00
10030;DHT22;5055;52.054;8.524;2023-03-01T02:24:59;-5.30;97.00
10030;DHT22;5055;52.054;8.524;2023-03-01T02:27:36;-5.40;97.00
10030;DHT22;5055;52.054;8.524;2023-03-01T02:30:09;-5.40;97.00
10030;DHT22;5055;52.054;8.524;2023-03-01T02:32:40;-5.40;97.00
10030;DHT22;5055;52.054;8.524;2023-03-01T02:35:10;-5.50;97.00
10030;DHT22;5055;52.054;8.524;2023-03-01T02:37:41;-5.50;97.00
10030;DHT22;5055;52.054;8.524;2023-03-01T02:40:13;-5.50;97.00
10030;DHT22;5055;52.054;8.524;2023-03-01T02:42:50;-5.50;97.00
10030;DHT22;5055;52.054;8.524;2023-03-01T02:45:20;-5.50;97.00
10030;DHT22;5055;52.054;8.524;2023-03-01T02:47:50;-5.50;97.00
10030;DHT22;5055;52.054;8.524;2023-03-01T02:50:45;-5.50;97.00
10030;DHT22;5055;52.054;8.524;2023-03-01T02:53:18;-5.50;97.00
10030;DHT22;5055;52.054;8.524;2023-03-01T02:55:50;-5.50;97.00
10030;DHT22;5055;52.054;8.524;2023-03-01T02:58:18;-5.50;97.00
10030;DHT22;5055;52.054;8.524;2023-03-01T03:00:48;-5.50;97.00
10030;DHT22;5055;52.054;8.524;2023-03-01T03:03:18;-5.60;97.00
10030;DHT22;5055;52.054;8.524;2023-03-01T03:05:48;-5.60;97.00
10030;DHT22;5055;52.054;8.524;2023-03-01T03:08:16;-5.70;97.00
10030;DHT22;5055;52.054;8.524;2023-03-01T03:10:51;-5.60;97.00
10030;DHT22;5055;52.054;8.524;2023-03-01T03:13:19;-5.60;97.00
10030;DHT22;5055;52.054;8.524;2023-03-01T03:15:52;-5.60;97.00
10030;DHT22;5055;52.054;8.524;2023-03-01T03:18:22;-5.70;97.00
10030;DHT22;5055;52.054;8.524;2023-03-01T03:20:58;-5.70;97.00
10030;DHT22;5055;52.054;8.524;2023-03-01T03:23:27;-5.70;97.00
10030;DHT22;5055;52.054;8.524;2023-03-01T03:25:56;-5.80;97.00
10030;DHT22;5055;52.054;8.524;2023-03-01T03:28:24;-5.80;97.00
10030;DHT22;5055;52.054;8.524;2023-03-01T03:30:54;-5.80;97.00
10030;DHT22;5055;52.054;8.524;2023-03-01T03:33:23;-5.90;97.00
10030;DHT22;5055;52.054;8.524;2023-03-01T03:35:52;-5.90;97.00
10030;DHT22;5055;52.054;8.524;2023-03-01T03:38:20;-5.90;97.00
10030;DHT22;5055;52.054;8.524;2023-03-01T03:40:50;-5.90;97.00
10030;DHT22;5055;52.054;8.524;2023-03-01T03:43:21;-5.90;97.00
10030;DHT22;5055;52.054;8.524;2023-03-01T03:45:51;-5.90;97.00
10030;DHT22;5055;52.054;8.524;2023-03-01T03:48:21;-5.90;97.00
10030;DHT22;5055;52.054;8.524;2023-03-01T03:50:51;-5.90;97.00
10030;DHT22;5055;52.054;8.524;2023-03-01T03:53:25;-6.00;97.00
10030;DHT22;5055;52.054;8.524;2023-03-01T03:55:54;-5.90;97.00
10030;DHT22;5055;52.054;8.524;2023-03-01T03:58:24;-5.90;97.00
10030;DHT22;5055;52.054;8.524;2023-03-01T04:00:55;-5.90;97.00
10030;DHT22;5055;52.054;8.524;2023-03-01T04:03:27;-5.80;97.00
10030;DHT22;5055;52.054;8.524;2023-03-01T04:05:57;-5.80;97.00
10030;DHT22;5055;52.054;8.524;2023-03-01T04:08:27;-5.80;97.00
10030;DHT22;5055;52.054;8.524;2023-03-01T04:11:01;-5.80;97.00
10030;DHT22;5055;52.054;8.524;2023-03-01T04:13:52;-5.80;97.00
10030;DHT22;5055;52.054;8.524;2023-03-01T04:16:22;-5.90;97.00
10030;DHT22;5055;52.054;8.524;2023-03-01T04:18:52;-5.90;97.00
10030;DHT22;5055;52.054;8.524;2023-03-01T04:21:21;-5.90;97.00
10030;DHT22;5055;52.054;8.524;2023-03-01T04:23:50;-6.00;97.00
10030;DHT22;5055;52.054;8.524;2023-03-01T04:26:20;-6.00;97.00
10030;DHT22;5055;52.054;8.524;2023-03-01T04:28:48;-6.00;97.00
10030;DHT22;5055;52.054;8.524;2023-03-01T04:31:18;-5.90;97.00
10030;DHT22;5055;52.054;8.524;2023-03-01T04:33:50;-5.90;97.00
10030;DHT22;5055;52.054;8.524;2023-03-01T04:36:23;-5.90;97.00
10030;DHT22;5055;52.054;8.524;2023-03-01T04:38:51;-5.90;97.00
10030;DHT22;5055;52.054;8.524;2023-03-01T04:41:22;-6.00;97.00
10030;DHT22;5055;52.054;8.524;2023-03-01T04:43:56;-6.00;97.00
10030;DHT22;5055;52.054;8.524;2023-03-01T04:46:27;-6.00;97.00
10030;DHT22;5055;52.054;8.524;2023-03-01T04:48:56;-6.00;97.00
10030;DHT22;5055;52.054;8.524;2023-03-01T04:51:26;-6.10;97.00
10030;DHT22;5055;52.054;8.524;2023-03-01T04:53:55;-6.10;97.00
10030;DHT22;5055;52.054;8.524;2023-03-01T04:56:24;-6.20;97.00
10030;DHT22;5055;52.054;8.524;2023-03-01T04:58:53;-6.20;97.00
10030;DHT22;5055;52.054;8.524;2023-03-01T05:01:22;-6.20;97.00
10030;DHT22;5055;52.054;8.524;2023-03-01T05:03:57;-6.30;97.00
10030;DHT22;5055;52.054;8.524;2023-03-01T05:06:31;-6.30;97.00
10030;DHT22;5055;52.054;8.524;2023-03-01T05:09:00;-6.30;97.00
10030;DHT22;5055;52.054;8.524;2023-03-01T05:11:29;-6.30;97.00
10030;DHT22;5055;52.054;8.524;2023-03-01T05:14:01;-6.40;97.00
10030;DHT22;5055;52.054;8.524;2023-03-01T05:16:29;-6.40;97.00
10030;DHT22;5055;52.054;8.524;2023-03-01T05:19:08;-6.40;97.00
10030;DHT22;5055;52.054;8.524;2023-03-01T05:21:43;-6.40;97.00
10030;DHT22;5055;52.054;8.524;2023-03-01T05:24:32;-6.40;97.00
10030;DHT22;5055;52.054;8.524;2023-03-01T05:27:02;-6.40;97.00
10030;DHT22;5055;52.054;8.524;2023-03-01T05:29:31;-6.30;97.00
10030;DHT22;5055;52.054;8.524;2023-03-01T05:32:02;-6.30;97.00
10030;DHT22;5055;52.054;8.524;2023-03-01T05:34:33;-6.30;97.00
10030;DHT22;5055;52.054;8.524;2023-03-01T05:37:03;-6.30;97.00
10030;DHT22;5055;52.054;8.524;2023-03-01T05:39:32;-6.30;97.00
10030;DHT22;5055;52.054;8.524;2023-03-01T05:42:03;-6.30;97.00
10030;DHT22;5055;52.054;8.524;2023-03-01T05:44:35;-6.40;97.00
10030;DHT22;5055;52.054;8.524;2023-03-01T05:47:03;-6.30;97.00
10030;DHT22;5055;52.054;8.524;2023-03-01T05:49:35;-6.40;97.00
10030;DHT22;5055;52.054;8.524;2023-03-01T05:52:07;-6.40;97.00
10030;DHT22;5055;52.054;8.524;2023-03-01T05:54:36;-6.40;97.00
10030;DHT22;5055;52.054;8.524;2023-03-01T05:57:04;-6.40;97.00
10030;DHT22;5055;52.054;8.524;2023-03-01T05:59:33;-6.40;97.00
10030;DHT22;5055;52.054;8.524;2023-03-01T06:02:02;-6.40;97.00
10030;DHT22;5055;52.054;8.524;2023-03-01T06:04:30;-6.50;97.00
10030;DHT22;5055;52.054;8.524;2023-03-01T06:06:58;-6.50;97.00
10030;DHT22;5055;52.054;8.524;2023-03-01T06:09:28;-6.50;97.00
10030;DHT22;5055;52.054;8.524;2023-03-01T06:11:57;-6.60;97.00
10030;DHT22;5055;52.054;8.524;2023-03-01T06:14:25;-6.50;97.00
10030;DHT22;5055;52.054;8.524;2023-03-01T06:16:54;-6.60;97.00
10030;DHT22;5055;52.054;8.524;2023-03-01T06:19:22;-6.60;97.00
10030;DHT22;5055;52.054;8.524;2023-03-01T06:21:57;-6.60;97.00
10030;DHT22;5055;52.054;8.524;2023-03-01T06:24:25;-6.60;97.00
10030;DHT22;5055;52.054;8.524;2023-03-01T06:26:57;-6.60;97.00
10030;DHT22;5055;52.054;8.524;2023-03-01T06:29:25;-6.60;97.00
10030;DHT22;5055;52.054;8.524;2023-03-01T06:31:54;-6.60;97.00
10030;DHT22;5055;52.054;8.524;2023-03-01T06:34:23;-6.50;97.00
10030;DHT22;5055;52.054;8.524;2023-03-01T06:36:51;-6.50;97.00
10030;DHT22;5055;52.054;8.524;2023-03-01T06:39:19;-6.50;97.00
10030;DHT22;5055;52.054;8.524;2023-03-01T06:41:48;-6.40;97.00
10030;DHT22;5055;52.054;8.524;2023-03-01T06:44:17;-6.40;97.00
10030;DHT22;5055;52.054;8.524;2023-03-01T06:46:46;-6.40;97.00
10030;DHT22;5055;52.054;8.524;2023-03-01T06:49:14;-6.40;97.00
10030;DHT22;5055;52.054;8.524;2023-03-01T06:51:44;-6.30;97.00
10030;DHT22;5055;52.054;8.524;2023-03-01T06:54:13;-6.30;97.00
10030;DHT22;5055;52.054;8.524;2023-03-01T06:56:42;-6.30;97.00
10030;DHT22;5055;52.054;8.524;2023-03-01T06:59:10;-6.20;97.00
10030;DHT22;5055;52.054;8.524;2023-03-01T07:01:40;-6.10;97.00
10030;DHT22;5055;52.054;8.524;2023-03-01T07:04:08;-5.90;97.00
10030;DHT22;5055;52.054;8.524;2023-03-01T07:06:37;-5.40;97.00
10030;DHT22;5055;52.054;8.524;2023-03-01T07:09:05;-4.90;97.00
10030;DHT22;5055;52.054;8.524;2023-03-01T07:11:34;-4.40;97.00
10030;DHT22;5055;52.054;8.524;2023-03-01T07:14:02;-4.00;97.00
10030;DHT22;5055;52.054;8.524;2023-03-01T07:16:31;-3.60;97.00
10030;DHT22;5055;52.054;8.524;2023-03-01T07:19:01;-3.20;97.00
10030;DHT22;5055;52.054;8.524;2023-03-01T07:21:29;-2.80;97.00
10030;DHT22;5055;52.054;8.524;2023-03-01T07:23:58;-2.50;97.00
10030;DHT22;5055;52.054;8.524;2023-03-01T07:26:26;-2.10;97.00
10030;DHT22;5055;52.054;8.524;2023-03-01T07:28:55;-1.70;97.00
10030;DHT22;5055;52.054;8.524;2023-03-01T07:31:26;-1.30;97.00
10030;DHT22;5055;52.054;8.524;2023-03-01T07:33:55;-1.00;97.00
10030;DHT22;5055;52.054;8.524;2023-03-01T07:36:25;-0.60;97.00
10030;DHT22;5055;52.054;8.524;2023-03-01T07:38:53;-0.20;97.00
10030;DHT22;5055;52.054;8.524;2023-03-01T07:41:23;0.10;97.00
10030;DHT22;5055;52.054;8.524;2023-03-01T07:43:51;0.50;97.00
10030;DHT22;5055;52.054;8.524;2023-03-01T07:46:20;0.70;97.00
10030;DHT22;5055;52.054;8.524;2023-03-01T07:48:48;1.00;97.00
10030;DHT22;5055;52.054;8.524;2023-03-01T07:51:16;1.20;97.00
10030;DHT22;5055;52.054;8.524;2023-03-01T07:53:49;1.30;97.00
10030;DHT22;5055;52.054;8.524;2023-03-01T07:56:17;1.50;97.00
10030;DHT22;5055;52.054;8.524;2023-03-01T07:58:46;1.60;97.00
10030;DHT22;5055;52.054;8.524;2023-03-01T08:01:18;1.70;97.00
10030;DHT22;5055;52.054;8.524;2023-03-01T08:03:47;1.90;97.00
10030;DHT22;5055;52.054;8.524;2023-03-01T08:06:17;2.10;97.00
10030;DHT22;5055;52.054;8.524;2023-03-01T08:08:45;2.20;97.00
10030;DHT22;5055;52.054;8.524;2023-03-01T08:11:16;2.30;97.00
10030;DHT22;5055;52.054;8.524;2023-03-01T08:13:47;2.50;97.00
10030;DHT22;5055;52.054;8.524;2023-03-01T08:16:19;2.70;97.00
10030;DHT22;5055;52.054;8.524;2023-03-01T08:18:48;2.90;97.00
10030;DHT22;5055;52.054;8.524;2023-03-01T08:21:17;3.00;97.00
10030;DHT22;5055;52.054;8.524;2023-03-01T08:23:46;3.20;97.00
10030;DHT22;5055;52.054;8.524;2023-03-01T08:26:17;3.50;97.00
10030;DHT22;5055;52.054;8.524;2023-03-01T08:28:47;3.70;97.00
10030;DHT22;5055;52.054;8.524;2023-03-01T08:31:20;3.90;97.00
10030;DHT22;5055;52.054;8.524;2023-03-01T08:33:53;4.10;97.00
10030;DHT22;5055;52.054;8.524;2023-03-01T08:36:23;4.10;97.00
10030;DHT22;5055;52.054;8.524;2023-03-01T08:38:52;4.30;97.00
10030;DHT22;5055;52.054;8.524;2023-03-01T08:41:22;4.40;97.00
10030;DHT22;5055;52.054;8.524;2023-03-01T08:43:51;4.70;97.00
10030;DHT22;5055;52.054;8.524;2023-03-01T08:46:26;4.90;97.00
10030;DHT22;5055;52.054;8.524;2023-03-01T08:48:55;5.10;97.00
10030;DHT22;5055;52.054;8.524;2023-03-01T08:51:25;5.30;97.00
10030;DHT22;5055;52.054;8.524;2023-03-01T08:53:54;5.20;97.00
10030;DHT22;5055;52.054;8.524;2023-03-01T08:56:24;5.00;97.00
10030;DHT22;5055;52.054;8.524;2023-03-01T08:58:52;5.20;97.00
10030;DHT22;5055;52.054;8.524;2023-03-01T09:01:20;4.90;97.00
10030;DHT22;5055;52.054;8.524;2023-03-01T09:03:49;5.30;97.00
10030;DHT22;5055;52.054;8.524;2023-03-01T09:06:18;5.80;97.00
10030;DHT22;5055;52.054;8.524;2023-03-01T09:08:48;6.20;97.00
10030;DHT22;5055;52.054;8.524;2023-03-01T09:11:18;6.50;97.00
10030;DHT22;5055;52.054;8.524;2023-03-01T09:13:49;6.80;97.00
10030;DHT22;5055;52.054;8.524;2023-03-01T09:16:19;6.90;97.00
10030;DHT22;5055;52.054;8.524;2023-03-01T09:18:49;6.90;97.00
10030;DHT22;5055;52.054;8.524;2023-03-01T09:21:20;7.00;97.00
10030;DHT22;5055;52.054;8.524;2023-03-01T09:24:06;7.30;97.00
10030;DHT22;5055;52.054;8.524;2023-03-01T09:26:35;7.90;97.00
10030;DHT22;5055;52.054;8.524;2023-03-01T09:29:05;8.10;97.00
10030;DHT22;5055;52.054;8.524;2023-03-01T09:31:33;8.40;97.00
10030;DHT22;5055;52.054;8.524;2023-03-01T09:34:02;8.40;97.00
10030;DHT22;5055;52.054;8.524;2023-03-01T09:36:31;8.60;97.00
10030;DHT22;5055;52.054;8.524;2023-03-01T09:39:00;8.70;97.00
10030;DHT22;5055;52.054;8.524;2023-03-01T09:41:42;8.90;97.00
10030;DHT22;5055;52.054;8.524;2023-03-01T09:44:21;9.10;97.00
10030;DHT22;5055;52.054;8.524;2023-03-01T09:46:53;9.40;97.00
10030;DHT22;5055;52.054;8.524;2023-03-01T09:49:24;9.50;97.00
10030;DHT22;5055;52.054;8.524;2023-03-01T09:51:57;9.60;97.00
10030;DHT22;5055;52.054;8.524;2023-03-01T09:54:27;9.80;97.00
10030;DHT22;5055;52.054;8.524;2023-03-01T09:57:17;10.10;97.00
10030;DHT22;5055;52.054;8.524;2023-03-01T10:00:17;9.90;97.00
10030;DHT22;5055;52.054;8.524;2023-03-01T10:02:59;9.60;97.00
10030;DHT22;5055;52.054;8.524;2023-03-01T10:05:39;9.40;97.00
10030;DHT22;5055;52.054;8.524;2023-03-01T10:08:29;9.10;97.00
10030;DHT22;5055;52.054;8.524;2023-03-01T10:11:03;8.50;97.00
10030;DHT22;5055;52.054;8.524;2023-03-01T10:13:37;8.80;97.00
10030;DHT22;5055;52.054;8.524;2023-03-01T10:16:15;9.10;97.00
10030;DHT22;5055;52.054;8.524;2023-03-01T10:18:48;9.00;97.00
10030;DHT22;5055;52.054;8.524;2023-03-01T10:21:20;9.50;97.00
10030;DHT22;5055;52.054;8.524;2023-03-01T10:23:50;9.50;97.00
10030;DHT22;5055;52.054;8.524;2023-03-01T10:26:32;9.50;97.00
10030;DHT22;5055;52.054;8.524;2023-03-01T10:29:05;9.40;97.00
10030;DHT22;5055;52.054;8.524;2023-03-01T10:31:41;9.20;97.00
10030;DHT22;5055;52.054;8.524;2023-03-01T10:34:16;8.70;97.00
10030;DHT22;5055;52.054;8.524;2023-03-01T10:36:48;8.60;97.00
10030;DHT22;5055;52.054;8.524;2023-03-01T10:39:19;8.90;97.00
10030;DHT22;5055;52.054;8.524;2023-03-01T10:42:02;8.90;97.00
10030;DHT22;5055;52.054;8.524;2023-03-01T10:44:43;8.90;97.00
10030;DHT22;5055;52.054;8.524;2023-03-01T10:47:19;9.10;97.00
10030;DHT22;5055;52.054;8.524;2023-03-01T10:50:04;9.40;97.00
10030;DHT22;5055;52.054;8.524;2023-03-01T10:52:35;8.70;97.00
10030;DHT22;5055;52.054;8.524;2023-03-01T10:55:23;8.60;97.00
10030;DHT22;5055;52.054;8.524;2023-03-01T10:58:06;9.00;97.00
10030;DHT22;5055;52.054;8.524;2023-03-01T11:00:46;9.30;97.00
10030;DHT22;5055;52.054;8.524;2023-03-01T11:03:21;9.80;97.00
10030;DHT22;5055;52.054;8.524;2023-03-01T11:05:59;9.90;97.00
10030;DHT22;5055;52.054;8.524;2023-03-01T11:08:40;9.80;97.00
10030;DHT22;5055;52.054;8.524;2023-03-01T11:11:23;9.80;97.00
10030;DHT22;5055;52.054;8.524;2023-03-01T11:13:57;9.80;97.00
10030;DHT22;5055;52.054;8.524;2023-03-01T11:16:29;9.90;97.00
10030;DHT22;5055;52.054;8.524;2023-03-01T11:19:16;9.70;97.00
10030;DHT22;5055;52.054;8.524;2023-03-01T11:21:51;9.20;97.00
10030;DHT22;5055;52.054;8.524;2023-03-01T11:24:24;9.30;97.00
10030;DHT22;5055;52.054;8.524;2023-03-01T11:26:54;9.40;97.00
10030;DHT22;5055;52.054;8.524;2023-03-01T11:29:30;9.60;97.00
10030;DHT22;5055;52.054;8.524;2023-03-01T11:32:15;9.80;97.00
10030;DHT22;5055;52.054;8.524;2023-03-01T11:34:48;9.70;97.00
10030;DHT22;5055;52.054;8.524;2023-03-01T11:37:26;9.40;97.00
10030;DHT22;5055;52.054;8.524;2023-03-01T11:40:02;9.40;97.00
10030;DHT22;5055;52.054;8.524;2023-03-01T11:42:44;9.10;97.00
10030;DHT22;5055;52.054;8.524;2023-03-01T11:45:14;8.90;97.00
10030;DHT22;5055;52.054;8.524;2023-03-01T11:48:05;8.80;97.00
10030;DHT22;5055;52.054;8.524;2023-03-01T11:50:40;8.50;97.00
10030;DHT22;5055;52.054;8.524;2023-03-01T11:53:33;8.10;97.00
10030;DHT22;5055;52.054;8.524;2023-03-01T11:56:11;7.90;97.00
10030;DHT22;5055;52.054;8.524;2023-03-01T11:59:00;7.70;97.00
10030;DHT22;5055;52.054;8.524;2023-03-01T12:01:37;7.70;97.00
10030;DHT22;5055;52.054;8.524;2023-03-01T12:07:33;7.30;97.00
10030;DHT22;5055;52.054;8.524;2023-03-01T12:10:21;7.20;97.00
10030;DHT22;5055;52.054;8.524;2023-03-01T12:13:10;7.20;97.00
10030;DHT22;5055;52.054;8.524;2023-03-01T12:16:07;7.30;97.00
10030;DHT22;5055;52.054;8.524;2023-03-01T12:19:05;7.60;97.00
10030;DHT22;5055;52.054;8.524;2023-03-01T12:21:46;7.80;97.00
10030;DHT22;5055;52.054;8.524;2023-03-01T12:24:38;8.10;97.00
10030;DHT22;5055;52.054;8.524;2023-03-01T12:27:26;8.10;97.00
10030;DHT22;5055;52.054;8.524;2023-03-01T12:30:09;8.30;97.00
10030;DHT22;5055;52.054;8.524;2023-03-01T12:32:49;8.40;97.00
10030;DHT22;5055;52.054;8.524;2023-03-01T12:35:40;8.90;97.00
10030;DHT22;5055;52.054;8.524;2023-03-01T12:38:30;9.40;97.00
10030;DHT22;5055;52.054;8.524;2023-03-01T12:41:33;9.70;97.00
10030;DHT22;5055;52.054;8.524;2023-03-01T12:44:14;9.80;97.00
10030;DHT22;5055;52.054;8.524;2023-03-01T12:46:57;10.40;97.00
10030;DHT22;5055;52.054;8.524;2023-03-01T12:49:32;10.70;97.00
10030;DHT22;5055;52.054;8.524;2023-03-01T12:52:09;11.10;97.00
10030;DHT22;5055;52.054;8.524;2023-03-01T12:54:38;11.60;97.00
10030;DHT22;5055;52.054;8.524;2023-03-01T12:57:12;11.70;97.00
10030;DHT22;5055;52.054;8.524;2023-03-01T12:59:49;12.10;97.00
10030;DHT22;5055;52.054;8.524;2023-03-01T13:02:23;12.30;97.00
10030;DHT22;5055;52.054;8.524;2023-03-01T13:05:01;12.50;97.00
10030;DHT22;5055;52.054;8.524;2023-03-01T13:07:38;12.80;97.00
10030;DHT22;5055;52.054;8.524;2023-03-01T13:10:21;13.00;97.00
10030;DHT22;5055;52.054;8.524;2023-03-01T13:13:01;13.10;97.00
10030;DHT22;5055;52.054;8.524;2023-03-01T13:15:32;13.50;97.00
10030;DHT22;5055;52.054;8.524;2023-03-01T13:18:04;13.80;97.00
10030;DHT22;5055;52.054;8.524;2023-03-01T13:20:53;14.20;97.00
10030;DHT22;5055;52.054;8.524;2023-03-01T13:23:26;14.20;97.00
10030;DHT22;5055;52.054;8.524;2023-03-01T13:26:07;14.80;97.00
10030;DHT22;5055;52.054;8.524;2023-03-01T13:28:56;15.00;97.00
10030;DHT22;5055;52.054;8.524;2023-03-01T13:34:45;14.20;97.00
10030;DHT22;5055;52.054;8.524;2023-03-01T13:37:32;14.40;97.00
10030;DHT22;5055;52.054;8.524;2023-03-01T13:40:07;14.90;97.00
10030;DHT22;5055;52.054;8.524;2023-03-01T13:42:54;15.00;97.00
10030;DHT22;5055;52.054;8.524;2023-03-01T13:45:38;15.70;97.00
10030;DHT22;5055;52.054;8.524;2023-03-01T13:48:15;15.90;97.00
10030;DHT22;5055;52.054;8.524;2023-03-01T13:50:47;15.80;97.00
10030;DHT22;5055;52.054;8.524;2023-03-01T13:53:19;15.60;97.00
10030;DHT22;5055;52.054;8.524;2023-03-01T13:55:50;16.10;97.00
10030;DHT22;5055;52.054;8.524;2023-03-01T13:58:25;15.60;97.00
10030;DHT22;5055;52.054;8.524;2023-03-01T14:01:00;15.30;97.00
10030;DHT22;5055;52.054;8.524;2023-03-01T14:03:31;15.00;97.00
10030;DHT22;5055;52.054;8.524;2023-03-01T14:06:03;14.90;97.00
10030;DHT22;5055;52.054;8.524;2023-03-01T14:08:43;14.40;97.00
10030;DHT22;5055;52.054;8.524;2023-03-01T14:11:37;14.20;97.00
10030;DHT22;5055;52.054;8.524;2023-03-01T14:14:22;14.80;97.00
10030;DHT22;5055;52.054;8.524;2023-03-01T14:17:04;14.30;97.00
10030;DHT22;5055;52.054;8.524;2023-03-01T14:19:37;14.30;97.00
10030;DHT22;5055;52.054;8.524;2023-03-01T14:22:14;14.10;97.00
10030;DHT22;5055;52.054;8.524;2023-03-01T14:24:47;14.40;97.00
10030;DHT22;5055;52.054;8.524;2023-03-01T14:27:17;14.30;97.00
10030;DHT22;5055;52.054;8.524;2023-03-01T14:29:55;14.00;97.00
10030;DHT22;5055;52.054;8.524;2023-03-01T14:32:27;14.60;97.00
10030;DHT22;5055;52.054;8.524;2023-03-01T14:34:57;14.40;97.00
10030;DHT22;5055;52.054;8.524;2023-03-01T14:37:27;14.50;97.00
10030;DHT22;5055;52.054;8.524;2023-03-01T14:39:58;14.30;97.00
10030;DHT22;5055;52.054;8.524;2023-03-01T14:42:29;14.70;97.00
10030;DHT22;5055;52.054;8.524;2023-03-01T14:45:00;14.80;97.00
10030;DHT22;5055;52.054;8.524;2023-03-01T14:47:31;15.20;97.00
10030;DHT22;5055;52.054;8.524;2023-03-01T14:50:02;15.40;97.00
10030;DHT22;5055;52.054;8.524;2023-03-01T14:52:35;15.50;97.00
10030;DHT22;5055;52.054;8.524;2023-03-01T14:55:10;15.80;97.00
10030;DHT22;5055;52.054;8.524;2023-03-01T14:57:43;16.00;97.00
10030;DHT22;5055;52.054;8.524;2023-03-01T15:00:17;15.90;97.00
10030;DHT22;5055;52.054;8.524;2023-03-01T15:02:50;15.50;97.00
10030;DHT22;5055;52.054;8.524;2023-03-01T15:05:25;15.50;97.00
10030;DHT22;5055;52.054;8.524;2023-03-01T15:07:55;15.40;97.00
10030;DHT22;5055;52.054;8.524;2023-03-01T15:10:26;15.30;97.00
10030;DHT22;5055;52.054;8.524;2023-03-01T15:12:56;15.20;97.00
10030;DHT22;5055;52.054;8.524;2023-03-01T15:15:33;15.00;97.00
10030;DHT22;5055;52.054;8.524;2023-03-01T15:18:06;14.80;97.00
10030;DHT22;5055;52.054;8.524;2023-03-01T15:20:35;14.40;97.00
10030;DHT22;5055;52.054;8.524;2023-03-01T15:23:03;14.00;97.00
10030;DHT22;5055;52.054;8.524;2023-03-01T15:25:33;14.00;97.00
10030;DHT22;5055;52.054;8.524;2023-03-01T15:28:02;14.00;97.00
10030;DHT22;5055;52.054;8.524;2023-03-01T15:30:32;13.70;97.00
10030;DHT22;5055;52.054;8.524;2023-03-01T15:33:20;13.50;97.00
10030;DHT22;5055;52.054;8.524;2023-03-01T15:35:56;13.40;97.00
10030;DHT22;5055;52.054;8.524;2023-03-01T15:38:49;13.10;97.00
10030;DHT22;5055;52.054;8.524;2023-03-01T15:41:26;12.70;97.00
10030;DHT22;5055;52.054;8.524;2023-03-01T15:43:55;12.40;97.00
10030;DHT22;5055;52.054;8.524;2023-03-01T15:46:27;11.80;97.00
10030;DHT22;5055;52.054;8.524;2023-03-01T15:48:59;11.00;97.00
10030;DHT22;5055;52.054;8.524;2023-03-01T15:51:33;10.00;97.00
10030;DHT22;5055;52.054;8.524;2023-03-01T15:54:05;9.30;97.00
10030;DHT22;5055;52.054;8.524;2023-03-01T15:56:34;8.60;97.00
10030;DHT22;5055;52.054;8.524;2023-03-01T15:59:03;8.20;97.00
10030;DHT22;5055;52.054;8.524;2023-03-01T16:01:33;7.90;97.00
10030;DHT22;5055;52.054;8.524;2023-03-01T16:04:03;7.70;97.00
10030;DHT22;5055;52.054;8.524;2023-03-01T16:06:32;7.50;97.00
10030;DHT22;5055;52.054;8.524;2023-03-01T16:09:01;7.30;97.00
10030;DHT22;5055;52.054;8.524;2023-03-01T16:11:30;7.20;97.00
10030;DHT22;5055;52.054;8.524;2023-03-01T16:13:59;7.00;97.00
10030;DHT22;5055;52.054;8.524;2023-03-01T16:16:28;6.90;97.00
10030;DHT22;5055;52.054;8.524;2023-03-01T16:18:57;6.80;97.00
10030;DHT22;5055;52.054;8.524;2023-03-01T16:21:27;6.70;97.00
10030;DHT22;5055;52.054;8.524;2023-03-01T16:23:56;6.50;97.00
10030;DHT22;5055;52.054;8.524;2023-03-01T16:26:25;6.50;97.00
10030;DHT22;5055;52.054;8.524;2023-03-01T16:28:55;6.50;97.00
10030;DHT22;5055;52.054;8.524;2023-03-01T16:31:24;6.60;97.00
10030;DHT22;5055;52.054;8.524;2023-03-01T16:33:55;6.70;97.00
10030;DHT22;5055;52.054;8.524;2023-03-01T16:36:26;6.60;97.00